Time;durP1;ratioP1;P1;durP2;ratioP2;P2;SDS_P1;SDS_P2;PMS_P1;PMS_P2;Temp;Humidity;BMP_temperature;BMP_pressure;BME280_temperature;BME280_humidity;BME280_pressure;Samples;Min_cycle;Max_cycle;Signal;HPM_P1;HPM_P2
2024/01/02 00:00:38;;;;;;;;;;;4.10;99.90;;;;;;5116925;28;19964;-76
2024/01/02 00:03:03;;;;;;;;;;;4.00;99.90;;;;;;5117356;28;19991;-76
2024/01/02 00:05:29;;;;;;;;;;;4.10;99.90;;;;;;5116512;28;19912;-76
2024/01/02 00:07:54;;;;;;;;;;;4.00;99.90;;;;;;5117146;28;19903;-76
2024/01/02 00:10:20;;;;;;;;;;;4.00;99.90;;;;;;5117882;28;19934;-76
2024/01/02 00:12:45;;;;;;;;;;;4.00;99.90;;;;;;5118615;28;20024;-75
2024/01/02 00:15:11;;;;;;;;;;;4.10;99.90;;;;;;5116338;28;19907;-76
2024/01/02 00:17:36;;;;;;;;;;;4.00;99.90;;;;;;5118119;28;19912;-75
2024/01/02 00:20:02;;;;;;;;;;;4.00;99.90;;;;;;5118056;28;19903;-76
2024/01/02 00:22:28;;;;;;;;;;;4.10;99.90;;;;;;5117977;28;19914;-75
2024/01/02 00:24:53;;;;;;;;;;;4.10;99.90;;;;;;5107612;28;19907;-75
2024/01/02 00:27:19;;;;;;;;;;;4.10;99.90;;;;;;5118047;28;19904;-75
2024/01/02 00:29:44;;;;;;;;;;;4.10;99.90;;;;;;5116525;28;19903;-75
2024/01/02 00:32:10;;;;;;;;;;;4.10;99.90;;;;;;5116649;28;20442;-75
2024/01/02 00:34:35;;;;;;;;;;;4.00;99.90;;;;;;5115998;28;20315;-75
2024/01/02 00:37:01;;;;;;;;;;;4.00;99.90;;;;;;5116669;28;20368;-75
2024/01/02 00:39:26;;;;;;;;;;;4.10;99.90;;;;;;5117213;28;19916;-75
2024/01/02 00:41:52;;;;;;;;;;;4.00;99.90;;;;;;5116599;28;20412;-75
2024/01/02 00:44:17;;;;;;;;;;;4.00;99.90;;;;;;5117723;28;19911;-75
2024/01/02 00:46:43;;;;;;;;;;;4.00;99.90;;;;;;5117627;28;19907;-75
2024/01/02 00:49:08;;;;;;;;;;;4.00;99.90;;;;;;5117610;28;20002;-76
2024/01/02 00:51:34;;;;;;;;;;;4.10;99.90;;;;;;5117701;28;19947;-75
2024/01/02 00:54:00;;;;;;;;;;;4.10;99.90;;;;;;5115753;28;20436;-76
2024/01/02 00:56:26;;;;;;;;;;;4.10;99.90;;;;;;5117512;28;19923;-75
2024/01/02 00:58:51;;;;;;;;;;;4.10;99.90;;;;;;5115931;28;19912;-76
2024/01/02 01:01:17;;;;;;;;;;;4.10;99.90;;;;;;5116011;28;20626;-76
2024/01/02 01:03:43;;;;;;;;;;;4.10;99.90;;;;;;5115932;28;19954;-76
2024/01/02 01:06:08;;;;;;;;;;;4.10;99.90;;;;;;5116010;28;19911;-76
2024/01/02 01:08:34;;;;;;;;;;;4.10;99.90;;;;;;5116043;28;19915;-75
2024/01/02 01:10:59;;;;;;;;;;;4.00;99.90;;;;;;5117227;28;19908;-76
2024/01/02 01:13:25;;;;;;;;;;;4.00;99.90;;;;;;5117200;27;19904;-75
2024/01/02 01:15:53;;;;;;;;;;;4.00;99.90;;;;;;5117406;28;19911;-76
2024/01/02 01:18:19;;;;;;;;;;;4.00;99.90;;;;;;5115209;28;19994;-76
2024/01/02 01:20:44;;;;;;;;;;;4.00;99.90;;;;;;5117056;28;19958;-76
2024/01/02 01:23:10;;;;;;;;;;;4.00;99.90;;;;;;5117062;28;19912;-76
2024/01/02 01:25:35;;;;;;;;;;;4.00;99.90;;;;;;5116888;28;19957;-76
2024/01/02 01:28:03;;;;;;;;;;;4.00;99.90;;;;;;5115447;28;19912;-76
2024/01/02 01:30:29;;;;;;;;;;;4.00;99.90;;;;;;5116616;28;19929;-75
2024/01/02 01:32:54;;;;;;;;;;;4.10;99.90;;;;;;5116877;28;19903;-76
2024/01/02 01:35:20;;;;;;;;;;;4.00;99.90;;;;;;5116857;28;19948;-76
2024/01/02 01:37:45;;;;;;;;;;;4.00;99.90;;;;;;5116285;28;20390;-75
2024/01/02 01:40:11;;;;;;;;;;;4.00;99.90;;;;;;5115309;28;20391;-76
2024/01/02 01:42:36;;;;;;;;;;;4.00;99.90;;;;;;5114640;28;19991;-75
2024/01/02 01:45:02;;;;;;;;;;;4.00;99.90;;;;;;5116466;28;19903;-76
2024/01/02 01:47:28;;;;;;;;;;;4.00;99.90;;;;;;5114910;28;19910;-75
2024/01/02 01:49:53;;;;;;;;;;;4.00;99.90;;;;;;5116786;28;20006;-76
2024/01/02 01:52:19;;;;;;;;;;;4.10;99.90;;;;;;5114446;28;19920;-76
2024/01/02 01:54:45;;;;;;;;;;;4.10;99.90;;;;;;5116275;28;19904;-75
2024/01/02 01:57:11;;;;;;;;;;;4.10;99.90;;;;;;5114515;28;20391;-75
2024/01/02 01:59:37;;;;;;;;;;;4.20;99.90;;;;;;5114902;28;19985;-75
2024/01/02 02:02:03;;;;;;;;;;;4.20;99.90;;;;;;5116057;28;19908;-75
2024/01/02 02:04:29;;;;;;;;;;;4.30;99.90;;;;;;5116529;28;19903;-76
2024/01/02 02:06:54;;;;;;;;;;;4.30;99.90;;;;;;5114253;28;19956;-75
2024/01/02 02:09:20;;;;;;;;;;;4.30;99.90;;;;;;5116053;28;20435;-76
2024/01/02 02:11:45;;;;;;;;;;;4.30;99.90;;;;;;5116181;28;19911;-76
2024/01/02 02:14:11;;;;;;;;;;;4.30;99.90;;;;;;5116292;28;19915;-76
2024/01/02 02:16:40;;;;;;;;;;;4.30;99.90;;;;;;5116141;28;19957;-76
2024/01/02 02:19:05;;;;;;;;;;;4.40;99.90;;;;;;5115030;28;19914;-76
2024/01/02 02:21:31;;;;;;;;;;;4.40;99.90;;;;;;5114060;28;19907;-76
2024/01/02 02:23:57;;;;;;;;;;;4.40;99.90;;;;;;5114438;28;19904;-76
2024/01/02 02:26:22;;;;;;;;;;;4.40;99.90;;;;;;5115968;28;19949;-75
2024/01/02 02:28:48;;;;;;;;;;;4.40;99.90;;;;;;5116426;28;20024;-76
2024/01/02 02:31:16;;;;;;;;;;;4.40;99.90;;;;;;5114482;28;19946;-76
2024/01/02 02:33:41;;;;;;;;;;;4.50;99.90;;;;;;5116197;28;19908;-76
2024/01/02 02:36:07;;;;;;;;;;;4.50;99.90;;;;;;5114470;28;19926;-76
2024/01/02 02:38:33;;;;;;;;;;;4.50;99.90;;;;;;5115755;28;19914;-76
2024/01/02 02:40:58;;;;;;;;;;;4.50;99.90;;;;;;5115814;28;19908;-76
2024/01/02 02:43:23;;;;;;;;;;;4.50;99.90;;;;;;5114742;28;19963;-76
2024/01/02 02:45:49;;;;;;;;;;;4.50;99.90;;;;;;5111941;28;19959;-75
2024/01/02 02:48:14;;;;;;;;;;;4.50;99.90;;;;;;5116071;28;20391;-76
2024/01/02 02:50:40;;;;;;;;;;;4.50;99.90;;;;;;5115901;28;19979;-75
2024/01/02 02:53:06;;;;;;;;;;;4.50;99.90;;;;;;5115803;28;20431;-76
2024/01/02 02:55:31;;;;;;;;;;;4.50;99.90;;;;;;5115328;28;20510;-76
2024/01/02 02:57:57;;;;;;;;;;;4.60;99.90;;;;;;5114507;28;19911;-76
2024/01/02 03:00:22;;;;;;;;;;;4.60;99.90;;;;;;5115671;28;19904;-75
2024/01/02 03:02:48;;;;;;;;;;;4.60;99.90;;;;;;5114636;28;19908;-76
2024/01/02 03:05:15;;;;;;;;;;;4.60;99.90;;;;;;5114044;28;19903;-75
2024/01/02 03:07:41;;;;;;;;;;;4.60;99.90;;;;;;5107166;28;19908;-76
2024/01/02 03:10:07;;;;;;;;;;;4.50;99.90;;;;;;5115715;28;19915;-75
2024/01/02 03:12:32;;;;;;;;;;;4.60;99.90;;;;;;5107153;28;20387;-75
2024/01/02 03:14:58;;;;;;;;;;;4.50;99.90;;;;;;5114289;28;19907;-76
2024/01/02 03:17:24;;;;;;;;;;;4.60;99.90;;;;;;5105545;28;19904;-75
2024/01/02 03:19:49;;;;;;;;;;;4.60;99.90;;;;;;5114158;28;20286;-75
2024/01/02 03:22:15;;;;;;;;;;;4.50;99.90;;;;;;5115433;28;19930;-75
2024/01/02 03:24:41;;;;;;;;;;;4.60;99.90;;;;;;5113600;28;19943;-76
2024/01/02 03:27:07;;;;;;;;;;;4.60;99.90;;;;;;5115519;28;19907;-75
2024/01/02 03:29:32;;;;;;;;;;;4.60;99.90;;;;;;5115185;28;19960;-75
2024/01/02 03:31:58;;;;;;;;;;;4.70;99.90;;;;;;5114146;28;19953;-76
2024/01/02 03:34:23;;;;;;;;;;;4.70;99.90;;;;;;5116788;28;19951;-75
2024/01/02 03:36:49;;;;;;;;;;;4.70;99.90;;;;;;5119258;28;20363;-75
2024/01/02 03:39:14;;;;;;;;;;;4.70;99.90;;;;;;5118988;28;19908;-75
2024/01/02 03:41:40;;;;;;;;;;;4.80;99.90;;;;;;5118815;28;19947;-76
2024/01/02 03:44:05;;;;;;;;;;;4.80;99.90;;;;;;5118811;28;19949;-75
2024/01/02 03:46:31;;;;;;;;;;;4.80;99.90;;;;;;5119323;28;19954;-76
2024/01/02 03:48:56;;;;;;;;;;;4.80;99.90;;;;;;5117771;28;19904;-75
2024/01/02 03:51:22;;;;;;;;;;;4.80;99.90;;;;;;5118559;28;19907;-76
2024/01/02 03:53:47;;;;;;;;;;;4.80;99.90;;;;;;5117372;28;19907;-75
2024/01/02 03:56:15;;;;;;;;;;;4.70;99.90;;;;;;5118441;28;19931;-75
2024/01/02 03:58:41;;;;;;;;;;;4.60;99.90;;;;;;5117123;28;19952;-76
2024/01/02 04:01:06;;;;;;;;;;;4.50;99.90;;;;;;5118268;28;19982;-75
2024/01/02 04:03:32;;;;;;;;;;;4.40;99.90;;;;;;5105215;28;19981;-76
2024/01/02 04:05:57;;;;;;;;;;;4.30;99.90;;;;;;5111739;28;19998;-75
2024/01/02 04:08:23;;;;;;;;;;;4.20;99.90;;;;;;5118327;28;19914;-76
2024/01/02 04:10:48;;;;;;;;;;;4.20;99.90;;;;;;5116873;28;19914;-76
2024/01/02 04:13:14;;;;;;;;;;;4.10;99.90;;;;;;5117338;28;19914;-75
2024/01/02 04:15:40;;;;;;;;;;;4.10;99.90;;;;;;5112704;28;20288;-75
2024/01/02 04:18:05;;;;;;;;;;;4.00;99.90;;;;;;5118437;28;19912;-75
2024/01/02 04:20:31;;;;;;;;;;;4.00;99.90;;;;;;5116941;28;19903;-76
2024/01/02 04:22:57;;;;;;;;;;;4.00;99.90;;;;;;5118507;28;19939;-76
2024/01/02 04:25:23;;;;;;;;;;;4.00;99.90;;;;;;5114826;28;19904;-76
2024/01/02 04:27:53;;;;;;;;;;;4.00;99.90;;;;;;5109324;28;19908;-76
2024/01/02 04:30:18;;;;;;;;;;;4.00;99.90;;;;;;5116230;28;20693;-76
2024/01/02 04:32:44;;;;;;;;;;;4.00;99.90;;;;;;5112645;28;19931;-76
2024/01/02 04:35:09;;;;;;;;;;;4.00;99.90;;;;;;5116489;28;19908;-76
2024/01/02 04:37:35;;;;;;;;;;;4.00;99.90;;;;;;5117810;28;19916;-76
2024/01/02 04:40:00;;;;;;;;;;;4.00;99.90;;;;;;5112946;28;19904;-75
2024/01/02 04:42:26;;;;;;;;;;;3.90;99.90;;;;;;5108953;28;19904;-75
2024/01/02 04:44:51;;;;;;;;;;;3.90;99.90;;;;;;5112204;28;19903;-75
2024/01/02 04:47:17;;;;;;;;;;;3.90;99.90;;;;;;5116353;28;19903;-76
2024/01/02 04:49:42;;;;;;;;;;;3.90;99.90;;;;;;5116086;28;19904;-75
2024/01/02 04:52:08;;;;;;;;;;;3.90;99.90;;;;;;5117463;28;19904;-76
2024/01/02 04:54:34;;;;;;;;;;;3.80;99.90;;;;;;5117441;28;19969;-75
2024/01/02 04:56:59;;;;;;;;;;;3.80;99.90;;;;;;5117670;28;19924;-76
2024/01/02 04:59:25;;;;;;;;;;;3.80;99.90;;;;;;5117666;28;20287;-76
2024/01/02 05:01:51;;;;;;;;;;;3.80;99.90;;;;;;5117738;28;19904;-76
2024/01/02 05:04:16;;;;;;;;;;;3.80;99.90;;;;;;5117562;28;20303;-75
2024/01/02 05:06:42;;;;;;;;;;;3.80;99.90;;;;;;5117286;27;19904;-76
2024/01/02 05:09:08;;;;;;;;;;;3.80;99.90;;;;;;5115808;28;19914;-75
2024/01/02 05:11:37;;;;;;;;;;;3.80;99.90;;;;;;5116904;28;19907;-76
2024/01/02 05:14:02;;;;;;;;;;;3.80;99.90;;;;;;5115939;28;19904;-75
2024/01/02 05:16:28;;;;;;;;;;;3.70;99.90;;;;;;5106728;28;19911;-75
2024/01/02 05:18:54;;;;;;;;;;;3.70;99.90;;;;;;5098714;28;19937;-76
2024/01/02 05:21:19;;;;;;;;;;;3.70;99.90;;;;;;5101562;28;19956;-75
2024/01/02 05:23:45;;;;;;;;;;;3.70;99.90;;;;;;5115020;28;19907;-76
2024/01/02 05:26:10;;;;;;;;;;;3.70;99.90;;;;;;5114746;28;19980;-76
2024/01/02 05:28:36;;;;;;;;;;;3.70;99.90;;;;;;5117316;28;19904;-75
2024/01/02 05:31:02;;;;;;;;;;;3.70;99.90;;;;;;5117079;28;19975;-76
2024/01/02 05:33:27;;;;;;;;;;;3.70;99.90;;;;;;5115762;28;19910;-76
2024/01/02 05:35:53;;;;;;;;;;;3.70;99.90;;;;;;5116633;28;19939;-75
2024/01/02 05:38:18;;;;;;;;;;;3.70;99.90;;;;;;5116899;28;19960;-75
2024/01/02 05:40:44;;;;;;;;;;;3.80;99.90;;;;;;5114893;28;19903;-75
2024/01/02 05:43:09;;;;;;;;;;;3.80;99.90;;;;;;5117077;28;19987;-75
2024/01/02 05:45:36;;;;;;;;;;;3.80;99.90;;;;;;5112093;28;20010;-76
2024/01/02 05:48:02;;;;;;;;;;;3.80;99.90;;;;;;5116601;28;19971;-76
2024/01/02 05:50:27;;;;;;;;;;;3.90;99.90;;;;;;5116794;28;20397;-75
2024/01/02 05:52:53;;;;;;;;;;;3.90;99.90;;;;;;5116087;27;20340;-75
2024/01/02 05:55:18;;;;;;;;;;;3.90;99.90;;;;;;5101961;28;19916;-75
2024/01/02 05:57:44;;;;;;;;;;;3.80;99.90;;;;;;5115856;28;20411;-76
2024/01/02 06:00:10;;;;;;;;;;;3.80;99.90;;;;;;5116758;27;20299;-76
2024/01/02 06:02:35;;;;;;;;;;;3.80;99.90;;;;;;5115376;28;19908;-75
2024/01/02 06:05:01;;;;;;;;;;;3.80;99.90;;;;;;5115250;28;19908;-76
2024/01/02 06:07:27;;;;;;;;;;;3.80;99.90;;;;;;5116183;28;19956;-76
2024/01/02 06:09:52;;;;;;;;;;;3.80;99.90;;;;;;5108744;28;20448;-76
2024/01/02 06:12:18;;;;;;;;;;;3.90;99.90;;;;;;5109258;28;20324;-76
2024/01/02 06:14:43;;;;;;;;;;;3.90;99.90;;;;;;5115302;28;20328;-76
2024/01/02 06:17:09;;;;;;;;;;;3.90;99.90;;;;;;5112119;28;20012;-76
2024/01/02 06:19:34;;;;;;;;;;;4.10;99.90;;;;;;5115440;28;19955;-75
2024/01/02 06:22:00;;;;;;;;;;;4.10;99.90;;;;;;5115741;28;19904;-76
2024/01/02 06:24:25;;;;;;;;;;;4.20;99.90;;;;;;5114786;28;19907;-76
2024/01/02 06:26:51;;;;;;;;;;;4.30;99.90;;;;;;5115822;28;19910;-76
2024/01/02 06:29:16;;;;;;;;;;;4.30;99.90;;;;;;5114580;28;19911;-76
2024/01/02 06:31:42;;;;;;;;;;;4.40;99.90;;;;;;5110447;28;19908;-75
2024/01/02 06:34:08;;;;;;;;;;;4.50;99.90;;;;;;5115051;28;19908;-75
2024/01/02 06:36:34;;;;;;;;;;;4.50;99.90;;;;;;5115849;28;19907;-76
2024/01/02 06:38:59;;;;;;;;;;;4.60;99.90;;;;;;5114586;28;20053;-76
2024/01/02 06:41:25;;;;;;;;;;;4.60;99.90;;;;;;5115013;28;20037;-75
2024/01/02 06:43:50;;;;;;;;;;;4.70;99.90;;;;;;5114726;28;19906;-76
2024/01/02 06:46:16;;;;;;;;;;;4.70;99.90;;;;;;5115910;28;19927;-75
2024/01/02 06:48:42;;;;;;;;;;;4.80;99.90;;;;;;5116036;28;19927;-75
2024/01/02 06:51:07;;;;;;;;;;;4.80;99.90;;;;;;5115103;28;19985;-74
2024/01/02 06:53:33;;;;;;;;;;;4.90;99.90;;;;;;5115774;28;19908;-74
2024/01/02 06:55:59;;;;;;;;;;;4.90;99.90;;;;;;5115841;28;19919;-75
2024/01/02 06:58:24;;;;;;;;;;;4.90;99.90;;;;;;5114665;28;19915;-75
2024/01/02 07:00:50;;;;;;;;;;;5.00;99.90;;;;;;5116079;28;19925;-75
2024/01/02 07:03:17;;;;;;;;;;;4.90;99.90;;;;;;5115754;28;19904;-75
2024/01/02 07:05:42;;;;;;;;;;;5.00;99.90;;;;;;5115948;28;20335;-74
2024/01/02 07:08:08;;;;;;;;;;;5.00;99.90;;;;;;5110596;28;20012;-74
2024/01/02 07:10:33;;;;;;;;;;;5.00;99.90;;;;;;5118358;28;19961;-76
2024/01/02 07:12:59;;;;;;;;;;;5.00;99.90;;;;;;5118427;28;19961;-76
2024/01/02 07:15:24;;;;;;;;;;;5.00;99.90;;;;;;5113999;28;19953;-75
2024/01/02 07:17:50;;;;;;;;;;;4.90;99.90;;;;;;5117472;28;19952;-75
2024/01/02 07:20:15;;;;;;;;;;;4.80;99.90;;;;;;5118650;28;19903;-75
2024/01/02 07:22:44;;;;;;;;;;;4.80;99.90;;;;;;5118309;28;19904;-76
2024/01/02 07:25:11;;;;;;;;;;;4.70;99.90;;;;;;5119460;28;19907;-76
2024/01/02 07:27:37;;;;;;;;;;;4.60;99.90;;;;;;5117277;28;19907;-76
2024/01/02 07:30:04;;;;;;;;;;;4.60;99.90;;;;;;5119495;28;19946;-75
2024/01/02 07:32:30;;;;;;;;;;;4.50;99.90;;;;;;5113843;28;19908;-75
2024/01/02 07:34:55;;;;;;;;;;;4.50;99.90;;;;;;5117995;28;19921;-76
2024/01/02 07:37:21;;;;;;;;;;;4.40;99.90;;;;;;5118613;28;19907;-75
2024/01/02 07:39:46;;;;;;;;;;;4.30;99.90;;;;;;5117512;28;19904;-76
2024/01/02 07:42:12;;;;;;;;;;;4.30;99.90;;;;;;5118987;28;19903;-76
2024/01/02 07:44:38;;;;;;;;;;;4.30;99.90;;;;;;5117787;28;19904;-76
2024/01/02 07:47:04;;;;;;;;;;;4.30;99.90;;;;;;5118886;28;19907;-75
2024/01/02 07:49:29;;;;;;;;;;;4.30;99.90;;;;;;5117848;28;19908;-75
2024/01/02 07:51:55;;;;;;;;;;;4.30;99.90;;;;;;5117365;28;19903;-75
2024/01/02 07:54:20;;;;;;;;;;;4.40;99.90;;;;;;5118896;28;19904;-75
2024/01/02 07:56:46;;;;;;;;;;;4.60;99.90;;;;;;5118840;28;19919;-74
2024/01/02 07:59:15;;;;;;;;;;;4.70;99.90;;;;;;5113893;28;19922;-75
2024/01/02 08:01:41;;;;;;;;;;;4.80;99.90;;;;;;5117272;28;19908;-75
2024/01/02 08:04:06;;;;;;;;;;;4.90;99.90;;;;;;5114578;28;20424;-75
2024/01/02 08:06:32;;;;;;;;;;;4.90;99.90;;;;;;5111864;28;19944;-83
2024/01/02 08:08:57;;;;;;;;;;;4.90;99.90;;;;;;5095087;28;19962;-80
2024/01/02 08:11:23;;;;;;;;;;;5.00;99.90;;;;;;5094200;28;20368;-85
2024/01/02 08:13:48;;;;;;;;;;;5.00;99.90;;;;;;5095642;28;20292;-82
2024/01/02 08:16:14;;;;;;;;;;;5.10;99.90;;;;;;5106717;28;19912;-81
2024/01/02 08:18:43;;;;;;;;;;;5.20;99.90;;;;;;5092889;28;20708;-81
2024/01/02 08:21:09;;;;;;;;;;;5.30;99.90;;;;;;5104276;28;20295;-80
2024/01/02 08:23:35;;;;;;;;;;;5.40;99.90;;;;;;5094861;28;19904;-81
2024/01/02 08:26:21;;;;;;;;;;;5.50;99.90;;;;;;5100366;28;19911;-80
2024/01/02 08:28:47;;;;;;;;;;;5.60;99.90;;;;;;5109191;28;20000;-83
2024/01/02 08:31:13;;;;;;;;;;;5.80;99.90;;;;;;5100741;28;19911;-83
2024/01/02 08:33:38;;;;;;;;;;;6.00;99.90;;;;;;5102601;28;19908;-87
2024/01/02 08:36:06;;;;;;;;;;;6.20;99.90;;;;;;5100530;28;19954;-82
2024/01/02 08:38:32;;;;;;;;;;;6.40;99.90;;;;;;5095546;28;19980;-82
2024/01/02 08:40:57;;;;;;;;;;;6.60;99.90;;;;;;5095022;28;20360;-83
2024/01/02 08:43:23;;;;;;;;;;;6.90;99.90;;;;;;5107760;28;19904;-81
2024/01/02 08:45:48;;;;;;;;;;;7.10;99.90;;;;;;5095013;28;19993;-81
2024/01/02 08:48:14;;;;;;;;;;;7.30;99.90;;;;;;5100401;28;19915;-84
2024/01/02 08:50:42;;;;;;;;;;;7.50;99.90;;;;;;5092399;28;19912;-84
2024/01/02 08:53:09;;;;;;;;;;;7.60;99.90;;;;;;5093197;28;20704;-85
2024/01/02 08:55:34;;;;;;;;;;;7.80;99.90;;;;;;5094882;28;20388;-84
2024/01/02 08:58:00;;;;;;;;;;;7.80;99.90;;;;;;5100091;28;19912;-83
2024/01/02 09:00:26;;;;;;;;;;;7.90;99.90;;;;;;5101700;28;19915;-83
2024/01/02 09:02:51;;;;;;;;;;;7.90;99.90;;;;;;5091369;28;19931;-80
2024/01/02 09:05:17;;;;;;;;;;;8.00;99.90;;;;;;5093214;28;19915;-83
2024/01/02 09:07:42;;;;;;;;;;;8.00;99.90;;;;;;5092636;28;19917;-83
2024/01/02 09:10:08;;;;;;;;;;;8.10;99.90;;;;;;5092665;28;20459;-81
2024/01/02 09:12:34;;;;;;;;;;;8.10;99.90;;;;;;5097006;28;20344;-84
2024/01/02 09:15:00;;;;;;;;;;;8.10;99.90;;;;;;5098220;28;19954;-81
2024/01/02 09:17:26;;;;;;;;;;;8.20;99.90;;;;;;5097914;28;20003;-83
2024/01/02 09:19:51;;;;;;;;;;;8.20;99.90;;;;;;5092560;28;19947;-80
2024/01/02 09:22:17;;;;;;;;;;;8.30;99.90;;;;;;5099585;28;19939;-88
2024/01/02 09:24:43;;;;;;;;;;;8.30;99.90;;;;;;5095620;28;19908;-81
2024/01/02 09:27:09;;;;;;;;;;;8.30;99.90;;;;;;5093074;28;20670;-85
2024/01/02 09:29:35;;;;;;;;;;;8.30;99.90;;;;;;5105757;28;19908;-80
2024/01/02 09:32:00;;;;;;;;;;;8.40;99.90;;;;;;5101441;28;19908;-82
2024/01/02 09:34:26;;;;;;;;;;;8.40;99.90;;;;;;5094060;28;19908;-80
2024/01/02 09:36:52;;;;;;;;;;;8.50;99.90;;;;;;5092869;28;19915;-86
2024/01/02 09:39:18;;;;;;;;;;;8.50;99.90;;;;;;5094875;28;19912;-82
2024/01/02 09:41:43;;;;;;;;;;;8.60;99.90;;;;;;5104852;28;19908;-82
2024/01/02 09:44:21;;;;;;;;;;;8.60;99.90;;;;;;5095251;28;20092;-83
2024/01/02 09:47:16;;;;;;;;;;;8.70;99.90;;;;;;5115374;28;19907;-81
2024/01/02 09:49:51;;;;;;;;;;;8.80;99.90;;;;;;5097635;28;19927;-80
2024/01/02 09:52:25;;;;;;;;;;;8.80;99.90;;;;;;5116913;28;20442;-80
2024/01/02 09:55:06;;;;;;;;;;;8.90;99.90;;;;;;5116471;28;19904;-84
2024/01/02 09:57:34;;;;;;;;;;;9.10;99.90;;;;;;5114524;28;20302;-82
2024/01/02 10:00:09;;;;;;;;;;;9.10;99.90;;;;;;5116867;28;20307;-80
2024/01/02 10:02:47;;;;;;;;;;;9.20;99.90;;;;;;5115368;28;19961;-85
2024/01/02 10:05:36;;;;;;;;;;;9.20;99.90;;;;;;5116797;28;20287;-81
2024/01/02 10:08:14;;;;;;;;;;;9.20;99.90;;;;;;5109972;28;19908;-83
2024/01/02 10:10:49;;;;;;;;;;;9.30;99.90;;;;;;5103781;28;19904;-80
2024/01/02 10:13:25;;;;;;;;;;;9.30;99.90;;;;;;5107784;28;19904;-83
2024/01/02 10:15:51;;;;;;;;;;;9.40;99.90;;;;;;5117388;28;19904;-81
2024/01/02 10:18:19;;;;;;;;;;;9.50;99.90;;;;;;5117411;28;19919;-84
2024/01/02 10:21:02;;;;;;;;;;;9.50;99.90;;;;;;5108134;28;20025;-79
2024/01/02 10:23:28;;;;;;;;;;;9.50;99.90;;;;;;5097182;28;19911;-85
2024/01/02 10:25:58;;;;;;;;;;;9.50;99.90;;;;;;5095878;28;19908;-83
2024/01/02 10:28:25;;;;;;;;;;;9.50;99.90;;;;;;5114841;28;19915;-83
2024/01/02 10:30:50;;;;;;;;;;;9.50;99.90;;;;;;5116613;28;20386;-85
2024/01/02 10:33:28;;;;;;;;;;;9.60;99.90;;;;;;5110768;28;19908;-82
2024/01/02 10:36:00;;;;;;;;;;;9.60;99.90;;;;;;5107464;28;19903;-85
2024/01/02 10:38:44;;;;;;;;;;;9.60;99.90;;;;;;5106016;28;19919;-81
2024/01/02 10:41:13;;;;;;;;;;;9.60;99.90;;;;;;5115120;28;19908;-80
2024/01/02 10:44:05;;;;;;;;;;;9.50;99.90;;;;;;5119794;28;19935;-82
2024/01/02 10:46:57;;;;;;;;;;;9.50;99.90;;;;;;5106685;28;19908;-82
2024/01/02 10:49:22;;;;;;;;;;;9.50;99.90;;;;;;5091958;28;19904;-82
2024/01/02 10:51:54;;;;;;;;;;;9.50;99.90;;;;;;5107511;28;19904;-82
2024/01/02 10:54:43;;;;;;;;;;;9.50;99.90;;;;;;5116367;28;19912;-81
2024/01/02 10:57:14;;;;;;;;;;;9.50;99.90;;;;;;5115427;28;20506;-83
2024/01/02 11:00:10;;;;;;;;;;;9.50;99.90;;;;;;5114438;28;20007;-85
2024/01/02 11:02:59;;;;;;;;;;;9.50;99.90;;;;;;5099822;28;19912;-83
2024/01/02 11:05:38;;;;;;;;;;;9.50;99.90;;;;;;5100464;28;19918;-89
2024/01/02 11:08:11;;;;;;;;;;;9.40;99.90;;;;;;5108270;28;20414;-80
2024/01/02 11:11:00;;;;;;;;;;;9.40;99.90;;;;;;5104227;28;20029;-84
2024/01/02 11:13:26;;;;;;;;;;;9.40;99.90;;;;;;5104511;28;19908;-86
2024/01/02 11:15:55;;;;;;;;;;;9.40;99.90;;;;;;5112433;28;19915;-83
2024/01/02 11:18:21;;;;;;;;;;;9.40;99.90;;;;;;5103893;28;19915;-82
2024/01/02 11:20:51;;;;;;;;;;;9.50;99.90;;;;;;5107498;28;19956;-84
2024/01/02 11:23:17;;;;;;;;;;;9.60;99.90;;;;;;5112066;28;20296;-82
2024/01/02 11:25:49;;;;;;;;;;;9.60;99.90;;;;;;5107007;28;19984;-75
2024/01/02 11:28:15;;;;;;;;;;;9.70;99.90;;;;;;5106851;28;19913;-78
2024/01/02 11:30:42;;;;;;;;;;;9.80;99.90;;;;;;5111424;28;19911;-80
2024/01/02 11:33:46;;;;;;;;;;;9.90;99.90;;;;;;5104769;28;19915;-81
2024/01/02 11:36:32;;;;;;;;;;;9.90;99.90;;;;;;5078581;28;19971;-78
2024/01/02 11:39:08;;;;;;;;;;;10.00;99.90;;;;;;5075334;28;19912;-77
2024/01/02 11:41:44;;;;;;;;;;;10.00;99.90;;;;;;5097733;28;20649;-78
2024/01/02 11:44:18;;;;;;;;;;;10.10;99.90;;;;;;5108342;28;19914;-80
2024/01/02 11:46:45;;;;;;;;;;;10.10;99.90;;;;;;5107961;28;20309;-79
2024/01/02 11:49:16;;;;;;;;;;;10.20;99.90;;;;;;5105932;28;19907;-82
2024/01/02 11:51:42;;;;;;;;;;;10.20;99.90;;;;;;5108982;28;20335;-79
2024/01/02 11:54:10;;;;;;;;;;;10.30;99.90;;;;;;5108218;28;19914;-79
2024/01/02 11:56:36;;;;;;;;;;;10.30;99.90;;;;;;5108483;28;19931;-77
2024/01/02 11:59:20;;;;;;;;;;;10.30;99.90;;;;;;5109999;28;19912;-79
2024/01/02 12:02:12;;;;;;;;;;;10.40;99.90;;;;;;5110848;28;19912;-75
2024/01/02 12:04:55;;;;;;;;;;;10.40;99.90;;;;;;5084745;28;20294;-78
2024/01/02 12:07:27;;;;;;;;;;;10.40;99.90;;;;;;5103908;28;20340;-78
2024/01/02 12:09:54;;;;;;;;;;;10.40;99.90;;;;;;5107879;28;20330;-78
2024/01/02 12:12:38;;;;;;;;;;;10.40;99.90;;;;;;5102318;28;19963;-80
2024/01/02 12:15:07;;;;;;;;;;;10.40;99.90;;;;;;5102959;28;19908;-78
2024/01/02 12:17:35;;;;;;;;;;;10.40;99.90;;;;;;5111214;28;19912;-80
2024/01/02 12:20:03;;;;;;;;;;;10.50;99.90;;;;;;5105213;28;19938;-79
2024/01/02 12:22:30;;;;;;;;;;;10.50;99.90;;;;;;5109887;28;19903;-79
2024/01/02 12:24:55;;;;;;;;;;;10.50;99.90;;;;;;5106819;28;19914;-77
2024/01/02 12:27:23;;;;;;;;;;;10.60;99.90;;;;;;5106191;28;19911;-80
2024/01/02 12:29:52;;;;;;;;;;;10.60;99.90;;;;;;5106771;28;19946;-83
2024/01/02 12:32:28;;;;;;;;;;;10.70;99.90;;;;;;5110068;28;19908;-78
2024/01/02 12:35:00;;;;;;;;;;;10.80;99.90;;;;;;5105115;28;19904;-78
2024/01/02 12:37:49;;;;;;;;;;;11.00;99.90;;;;;;5108534;28;19916;-80
2024/01/02 12:40:18;;;;;;;;;;;11.10;99.90;;;;;;5107098;28;19911;-78
2024/01/02 12:42:47;;;;;;;;;;;11.20;99.90;;;;;;5107627;28;19919;-80
2024/01/02 12:45:15;;;;;;;;;;;11.30;99.90;;;;;;5103424;28;19917;-78
2024/01/02 12:47:42;;;;;;;;;;;11.40;99.90;;;;;;5106894;28;19914;-78
2024/01/02 12:50:07;;;;;;;;;;;11.40;99.90;;;;;;5098203;28;19919;-77
2024/01/02 12:52:53;;;;;;;;;;;11.50;99.90;;;;;;5106661;27;19912;-79
2024/01/02 12:55:20;;;;;;;;;;;11.50;99.90;;;;;;5105475;28;20396;-78
2024/01/02 12:57:46;;;;;;;;;;;11.40;99.90;;;;;;5107377;28;19903;-79
2024/01/02 13:00:12;;;;;;;;;;;11.40;99.90;;;;;;5108527;28;19915;-77
2024/01/02 13:02:38;;;;;;;;;;;11.50;99.90;;;;;;5107342;28;19911;-77
2024/01/02 13:05:04;;;;;;;;;;;11.60;99.90;;;;;;5106577;28;20252;-78
2024/01/02 13:07:36;;;;;;;;;;;11.60;99.90;;;;;;5103710;28;19912;-77
2024/01/02 13:10:06;;;;;;;;;;;11.70;99.90;;;;;;5099797;28;19939;-79
2024/01/02 13:12:33;;;;;;;;;;;11.70;99.90;;;;;;5101717;28;19907;-76
2024/01/02 13:14:59;;;;;;;;;;;11.70;99.90;;;;;;5108868;28;20219;-82
2024/01/02 13:17:26;;;;;;;;;;;11.60;99.90;;;;;;5105105;28;19975;-85
2024/01/02 13:19:54;;;;;;;;;;;11.60;99.90;;;;;;5104540;28;19951;-80
2024/01/02 13:22:20;;;;;;;;;;;11.50;99.90;;;;;;5108099;28;19911;-82
2024/01/02 13:24:47;;;;;;;;;;;11.50;99.90;;;;;;5107673;28;19918;-83
2024/01/02 13:27:15;;;;;;;;;;;11.50;99.90;;;;;;5105072;28;20010;-82
2024/01/02 13:29:45;;;;;;;;;;;11.60;99.90;;;;;;5106854;28;19953;-81
2024/01/02 13:32:10;;;;;;;;;;;11.60;99.90;;;;;;5105514;28;19919;-83
2024/01/02 13:34:36;;;;;;;;;;;11.60;99.90;;;;;;5106275;28;19911;-79
2024/01/02 13:37:01;;;;;;;;;;;11.60;99.90;;;;;;5104476;28;19916;-79
2024/01/02 13:39:34;;;;;;;;;;;11.60;99.90;;;;;;5100747;28;19922;-85
2024/01/02 13:42:02;;;;;;;;;;;11.50;99.90;;;;;;5102969;28;19967;-79
2024/01/02 13:44:32;;;;;;;;;;;11.40;99.90;;;;;;5103910;28;19912;-78
2024/01/02 13:46:58;;;;;;;;;;;11.40;99.90;;;;;;5106656;28;19903;-81
2024/01/02 13:49:43;;;;;;;;;;;11.40;99.90;;;;;;5104292;28;20298;-79
2024/01/02 13:52:08;;;;;;;;;;;11.40;99.90;;;;;;5102584;28;19912;-77
2024/01/02 13:54:43;;;;;;;;;;;11.40;99.90;;;;;;5103941;28;19967;-80
2024/01/02 13:57:09;;;;;;;;;;;11.40;99.90;;;;;;5105977;28;20452;-77
2024/01/02 13:59:35;;;;;;;;;;;11.40;99.90;;;;;;5104734;28;20299;-79
2024/01/02 14:02:09;;;;;;;;;;;11.40;99.90;;;;;;5103605;28;19907;-81
2024/01/02 14:04:35;;;;;;;;;;;11.40;99.90;;;;;;5106040;28;20092;-79
2024/01/02 14:07:02;;;;;;;;;;;11.40;99.90;;;;;;5104574;28;19956;-83
2024/01/02 14:09:27;;;;;;;;;;;11.40;99.90;;;;;;5108126;28;19918;-78
2024/01/02 14:12:03;;;;;;;;;;;11.40;99.90;;;;;;5104357;28;20678;-77
2024/01/02 14:14:30;;;;;;;;;;;11.50;99.90;;;;;;5106581;28;19908;-80
2024/01/02 14:17:00;;;;;;;;;;;11.50;99.90;;;;;;5101640;28;19916;-82
2024/01/02 14:19:30;;;;;;;;;;;11.40;99.90;;;;;;5106211;28;19916;-78
2024/01/02 14:22:01;;;;;;;;;;;11.40;99.90;;;;;;5102807;28;19919;-81
2024/01/02 14:24:33;;;;;;;;;;;11.30;99.90;;;;;;5108647;28;19951;-82
2024/01/02 14:27:18;;;;;;;;;;;11.30;99.90;;;;;;5098669;28;19908;-81
2024/01/02 14:29:56;;;;;;;;;;;11.30;99.90;;;;;;5100325;28;20375;-79
2024/01/02 14:32:28;;;;;;;;;;;11.30;99.90;;;;;;5102998;28;20490;-79